createdAt,value
2014-07-14T00:00:48.000Z,70.11
2014-07-14T00:01:52.690Z,69.38
2014-07-14T00:02:57.379Z,69.75
2014-07-14T00:04:02.350Z,69.46
2014-07-14T00:05:07.040Z,69.6
2014-07-14T00:06:12.028Z,70.33
2014-07-14T00:07:16.717Z,71.08
2014-07-14T00:08:21.688Z,70.54
2014-07-14T00:09:26.378Z,70.41
2014-07-14T00:10:31.052Z,70.35
2014-07-14T00:11:35.741Z,69.57
2014-07-14T00:12:40.727Z,70
2014-07-14T00:13:45.417Z,69.97
2014-07-14T00:14:50.388Z,68.99
2014-07-14T00:15:55.374Z,68.68
2014-07-14T00:17:00.360Z,69.84
2014-07-14T00:18:05.347Z,70.11
2014-07-14T00:19:10.037Z,69.97
2014-07-14T00:20:14.726Z,69.58
2014-07-14T00:21:19.697Z,69.43
2014-07-14T00:22:24.683Z,69.38
2014-07-14T00:23:29.372Z,69.82
2014-07-14T00:24:34.063Z,70.32
2014-07-14T00:25:39.049Z,70.66
2014-07-14T00:26:43.722Z,71.05
2014-07-14T00:27:48.709Z,71.26
2014-07-14T00:28:53.696Z,71.77
2014-07-14T00:29:58.385Z,71.26
2014-07-14T00:31:03.355Z,69.74
2014-07-14T00:32:08.045Z,69.5
2014-07-14T00:33:13.015Z,69.98
2014-07-14T00:34:17.705Z,70.07
2014-07-14T00:35:22.394Z,71.46
2014-07-14T00:36:27.084Z,70.69
2014-07-14T00:37:31.758Z,70.78
2014-07-14T00:38:36.447Z,71.02
2014-07-14T00:39:41.138Z,71.4
2014-07-14T00:40:45.828Z,71.48
2014-07-14T00:41:50.799Z,71.3
2014-07-14T00:42:55.489Z,71.82
2014-07-14T00:44:00.162Z,71.94
2014-07-14T00:45:04.853Z,71.61
2014-07-14T00:46:09.838Z,71.55
2014-07-14T00:47:14.528Z,71.41
2014-07-14T00:48:19.514Z,71.09
2014-07-14T00:49:24.204Z,71.18
2014-07-14T00:50:28.878Z,72.05
2014-07-14T00:51:33.568Z,71.32
2014-07-14T00:52:38.257Z,71.17
2014-07-14T00:53:42.946Z,71.64
2014-07-14T00:54:47.933Z,71.81
2014-07-14T00:55:52.607Z,71.82
2014-07-14T00:56:57.593Z,71.84
2014-07-14T00:58:02.282Z,72.11
2014-07-14T00:59:06.973Z,71.8
2014-07-14T01:00:11.647Z,70.94
2014-07-14T01:01:16.336Z,71.69
2014-07-14T01:02:21.307Z,71.19
2014-07-14T01:03:25.996Z,71.12
2014-07-14T01:04:30.669Z,71.82
2014-07-14T01:05:35.656Z,71.77
2014-07-14T01:06:40.345Z,71.41
2014-07-14T01:07:45.020Z,71.25
2014-07-14T01:08:50.303Z,70.91
2014-07-14T01:09:54.992Z,71.16
2014-07-14T01:10:59.682Z,71.55
2014-07-14T01:12:04.356Z,71.42
2014-07-14T01:13:09.045Z,71.51
2014-07-14T01:14:14.031Z,70.8
2014-07-14T01:15:18.706Z,70.42
2014-07-14T01:16:23.395Z,70.29
2014-07-14T01:17:28.086Z,70.47
2014-07-14T01:18:32.776Z,70.52
2014-07-14T01:19:37.762Z,71.17
2014-07-14T01:20:42.749Z,70.27
2014-07-14T01:21:47.454Z,70.14
2014-07-14T01:22:52.144Z,70.7
2014-07-14T01:23:56.818Z,70.62
2014-07-14T01:25:01.804Z,70.1
2014-07-14T01:26:06.790Z,70.06
2014-07-14T01:27:11.479Z,71.19
2014-07-14T01:28:16.466Z,70.98
2014-07-14T01:29:21.156Z,70.28
2014-07-14T01:30:25.845Z,70.31
2014-07-14T01:31:30.519Z,70.38
2014-07-14T01:32:35.209Z,70.06
2014-07-14T01:33:39.898Z,70.41
2014-07-14T01:34:44.587Z,70.67
2014-07-14T01:35:49.260Z,70.99
2014-07-14T01:36:54.248Z,70.71
2014-07-14T01:37:59.234Z,70.05
2014-07-14T01:39:03.908Z,70.62
2014-07-14T01:40:08.597Z,70.15
2014-07-14T01:41:13.287Z,70.16
2014-07-14T01:42:17.961Z,70.15
2014-07-14T01:43:22.947Z,70.36
2014-07-14T01:44:27.934Z,70.83
2014-07-14T01:45:32.904Z,70.21
2014-07-14T01:46:37.893Z,69.91
2014-07-14T01:47:42.582Z,71.05
2014-07-14T01:48:47.569Z,70.5
2014-07-14T01:49:52.243Z,70.33
2014-07-14T01:50:57.229Z,70.34
2014-07-14T01:52:02.215Z,70.39
2014-07-14T01:53:06.889Z,70.81
2014-07-14T01:54:11.579Z,70.49
2014-07-14T01:55:16.268Z,69.86
2014-07-14T01:56:20.943Z,70.49
2014-07-14T01:57:25.632Z,70.4
2014-07-14T01:58:30.321Z,69.73
2014-07-14T01:59:34.995Z,70.22
2014-07-14T02:00:39.700Z,70.16
2014-07-14T02:01:44.390Z,69.86
2014-07-14T02:02:49.063Z,71.08
2014-07-14T02:03:53.753Z,70.34
2014-07-14T02:04:58.739Z,70.94
2014-07-14T02:06:03.726Z,69.93
2014-07-14T02:07:08.415Z,69.59
2014-07-14T02:08:13.105Z,70.12
2014-07-14T02:09:17.794Z,70.5
2014-07-14T02:10:22.468Z,70.73
2014-07-14T02:11:27.454Z,70.79
2014-07-14T02:12:32.441Z,70.71
2014-07-14T02:13:37.115Z,70.87
2014-07-14T02:14:42.101Z,70.2
2014-07-14T02:15:47.087Z,70.33
2014-07-14T02:16:51.762Z,70.32
2014-07-14T02:17:56.452Z,70.48
2014-07-14T02:19:01.140Z,70.33
2014-07-14T02:20:06.111Z,71.16
2014-07-14T02:21:10.801Z,71.43
2014-07-14T02:22:15.490Z,70.51
2014-07-14T02:23:20.462Z,69.79
2014-07-14T02:24:25.151Z,70.42
2014-07-14T02:25:29.841Z,71.5
2014-07-14T02:26:34.515Z,71.47
2014-07-14T02:27:39.204Z,72.05
2014-07-14T02:28:43.206Z,72.17
2014-07-14T02:29:47.879Z,71.26
2014-07-14T02:30:52.570Z,70.72
2014-07-14T02:31:57.261Z,70.21
2014-07-14T02:33:01.951Z,70.92
2014-07-14T02:34:06.624Z,71.49
2014-07-14T02:35:11.611Z,71.51
2014-07-14T02:36:16.299Z,70.73
2014-07-14T02:37:21.271Z,70.84
2014-07-14T02:38:26.257Z,70.73
2014-07-14T02:39:30.947Z,69.99
2014-07-14T02:40:35.636Z,70.54
2014-07-14T02:41:40.310Z,70.53
2014-07-14T02:42:45.000Z,70.45
2014-07-14T02:43:49.674Z,70.21
2014-07-14T02:44:54.660Z,70.66
2014-07-14T02:45:59.350Z,71.64
2014-07-14T02:47:04.023Z,71.16
2014-07-14T02:48:08.713Z,71.03
2014-07-14T02:49:13.402Z,70.91
2014-07-14T02:50:18.092Z,70.96
2014-07-14T02:51:22.766Z,71.41
2014-07-14T02:52:27.455Z,71.24
2014-07-14T02:53:32.442Z,70.99
2014-07-14T02:54:37.131Z,70.69
2014-07-14T02:55:41.821Z,70.53
2014-07-14T02:56:46.791Z,70.5
2014-07-14T02:57:51.481Z,70.74
2014-07-14T02:58:56.467Z,71.26
2014-07-14T03:00:01.157Z,71.47
2014-07-14T03:01:05.846Z,71.11
2014-07-14T03:02:10.835Z,71.45
2014-07-14T03:03:15.509Z,71.04
2014-07-14T03:04:20.198Z,70.48
2014-07-14T03:05:25.184Z,70.88
2014-07-14T03:06:29.858Z,71.58
2014-07-14T03:07:34.548Z,71.04
2014-07-14T03:08:38.550Z,71.12
2014-07-14T03:09:43.521Z,71.46
2014-07-14T03:10:48.210Z,71.04
2014-07-14T03:11:52.900Z,71.11
2014-07-14T03:12:57.573Z,71.37
2014-07-14T03:14:02.263Z,71.27
2014-07-14T03:15:06.937Z,70.65
2014-07-14T03:16:11.627Z,70.96
2014-07-14T03:17:16.316Z,70.63
2014-07-14T03:18:21.194Z,71.17
2014-07-14T03:19:25.883Z,71.2
2014-07-14T03:20:30.556Z,70.74
2014-07-14T03:21:35.544Z,70.28
2014-07-14T03:22:40.232Z,69.61
2014-07-14T03:23:44.906Z,69.34
2014-07-14T03:24:49.595Z,69.94
2014-07-14T03:25:54.286Z,69.68
2014-07-14T03:26:58.959Z,69.58
2014-07-14T03:28:03.649Z,70.78
2014-07-14T03:29:07.650Z,70.93
2014-07-14T03:30:12.341Z,71.06
2014-07-14T03:31:17.015Z,71.43
2014-07-14T03:32:21.704Z,70.72
2014-07-14T03:33:26.394Z,70.27
2014-07-14T03:34:31.068Z,70.55
2014-07-14T03:35:36.054Z,70.51
2014-07-14T03:36:40.743Z,70.86
2014-07-14T03:37:45.433Z,70.72
2014-07-14T03:38:50.107Z,70.72
2014-07-14T03:39:54.796Z,71.39
2014-07-14T03:40:59.486Z,71.4
2014-07-14T03:42:04.456Z,71.4
2014-07-14T03:43:09.146Z,71.19
2014-07-14T03:44:13.820Z,71.12
2014-07-14T03:45:18.525Z,70.25
2014-07-14T03:46:23.201Z,70.28
2014-07-14T03:47:27.889Z,70.27
2014-07-14T03:48:32.564Z,70.68
2014-07-14T03:49:37.550Z,71.12
2014-07-14T03:50:42.240Z,71.27
2014-07-14T03:51:46.914Z,70.94
2014-07-14T03:52:51.604Z,71.03
2014-07-14T03:53:56.293Z,70.85
2014-07-14T03:55:00.966Z,69.96
2014-07-14T03:56:05.656Z,69.98
2014-07-14T03:57:10.329Z,70.36
2014-07-14T03:58:15.317Z,70.44
2014-07-14T03:59:20.022Z,70.5
2014-07-14T04:00:24.695Z,70.58
2014-07-14T04:01:29.385Z,70.68
2014-07-14T04:02:34.059Z,70.32
2014-07-14T04:03:39.044Z,70.78
2014-07-14T04:04:43.735Z,70.45
2014-07-14T04:05:48.408Z,71.25
2014-07-14T04:06:53.098Z,70.05
2014-07-14T04:07:57.788Z,70.38
2014-07-14T04:09:02.476Z,70.26
2014-07-14T04:10:07.448Z,71.08
2014-07-14T04:11:12.138Z,70.25
2014-07-14T04:12:16.829Z,69.9
2014-07-14T04:13:21.518Z,70.04
2014-07-14T04:14:26.192Z,70.17
2014-07-14T04:15:30.882Z,70.46
2014-07-14T04:16:35.868Z,70.56
2014-07-14T04:17:40.557Z,70.22
2014-07-14T04:18:45.232Z,69.99
2014-07-14T04:19:49.921Z,70.25
2014-07-14T04:20:54.594Z,69.82
2014-07-14T04:21:59.285Z,69.62
2014-07-14T04:23:03.973Z,70.09
2014-07-14T04:24:08.945Z,71.08
2014-07-14T04:25:13.634Z,70.31
2014-07-14T04:26:18.324Z,69.75
2014-07-14T04:27:22.998Z,69.99
2014-07-14T04:28:27.984Z,70.3
2014-07-14T04:29:32.674Z,70.81
2014-07-14T04:30:37.347Z,70.68
2014-07-14T04:31:42.037Z,70.93
2014-07-14T04:32:46.726Z,70.29
2014-07-14T04:33:51.400Z,70
2014-07-14T04:34:56.090Z,69.51
2014-07-14T04:36:00.764Z,69.66
2014-07-14T04:37:05.453Z,69.75
2014-07-14T04:38:10.736Z,69.79
2014-07-14T04:39:15.410Z,70.66
2014-07-14T04:40:20.397Z,70.35
2014-07-14T04:41:25.383Z,70.4
2014-07-14T04:42:30.073Z,69.83
2014-07-14T04:43:35.044Z,70.36
2014-07-14T04:44:39.733Z,70.24
2014-07-14T04:45:44.423Z,69.91
2014-07-14T04:46:49.097Z,69.93
2014-07-14T04:47:54.083Z,69.34
2014-07-14T04:48:59.070Z,70.02
2014-07-14T04:50:03.759Z,69.94
2014-07-14T04:51:08.449Z,69.04
2014-07-14T04:52:13.138Z,69.26
2014-07-14T04:53:17.812Z,68.96
2014-07-14T04:54:22.501Z,70.76
2014-07-14T04:55:27.488Z,69.24
2014-07-14T04:56:32.177Z,69.12
2014-07-14T04:57:36.852Z,69.11
2014-07-14T04:58:41.837Z,69.17
2014-07-14T04:59:46.527Z,69.85
2014-07-14T05:00:51.515Z,69.94
2014-07-14T05:01:56.189Z,69.78
2014-07-14T05:03:00.879Z,69.18
2014-07-14T05:04:05.553Z,69.99
2014-07-14T05:05:10.243Z,70.25
2014-07-14T05:06:14.931Z,70.07
2014-07-14T05:07:19.605Z,69.6
2014-07-14T05:08:24.295Z,69.36
2014-07-14T05:09:28.968Z,69.76
2014-07-14T05:10:33.268Z,70.02
2014-07-14T05:11:37.958Z,70.33
2014-07-14T05:12:42.632Z,70.3
2014-07-14T05:13:47.320Z,70.1
2014-07-14T05:14:52.011Z,69.68
2014-07-14T05:15:56.997Z,69.71
2014-07-14T05:17:01.968Z,69.7
2014-07-14T05:18:06.657Z,70.01
2014-07-14T05:19:11.644Z,69.69
2014-07-14T05:20:16.333Z,69.39
2014-07-14T05:21:21.023Z,68.95
2014-07-14T05:22:26.009Z,68.98
2014-07-14T05:23:30.995Z,69.13
2014-07-14T05:24:35.669Z,69.51
2014-07-14T05:25:40.952Z,70.24
2014-07-14T05:26:45.658Z,70.34
2014-07-14T05:27:50.331Z,69.57
2014-07-14T05:28:55.037Z,68.61
2014-07-14T05:30:00.023Z,68.99
2014-07-14T05:31:05.009Z,69.08
2014-07-14T05:32:09.699Z,68.63
2014-07-14T05:33:14.404Z,68.81
2014-07-14T05:34:19.094Z,68.71
2014-07-14T05:35:23.768Z,68.79
2014-07-14T05:36:28.457Z,68.44
2014-07-14T05:37:33.146Z,68.64
2014-07-14T05:38:37.822Z,68.79
2014-07-14T05:39:43.105Z,68.67
2014-07-14T05:40:47.795Z,68.65
2014-07-14T05:41:52.484Z,68.85
2014-07-14T05:42:57.455Z,69.47
2014-07-14T05:44:02.145Z,69.21
2014-07-14T05:45:06.834Z,69.15
2014-07-14T05:46:11.525Z,68.75
2014-07-14T05:47:16.213Z,68.47
2014-07-14T05:48:21.200Z,69.33
2014-07-14T05:49:25.890Z,69.66
2014-07-14T05:50:30.563Z,69.24
2014-07-14T05:51:35.549Z,69.23
2014-07-14T05:52:40.537Z,69
2014-07-14T05:53:45.210Z,69.24
2014-07-14T05:54:49.228Z,68.79
2014-07-14T05:55:54.215Z,68.76
2014-07-14T05:56:58.217Z,68.87
2014-07-14T05:58:03.186Z,69.7
2014-07-14T05:59:07.876Z,69.92
2014-07-14T06:00:12.863Z,70
2014-07-14T06:01:17.553Z,69.75
2014-07-14T06:02:22.242Z,68.8
2014-07-14T06:03:26.916Z,68.6
2014-07-14T06:04:31.606Z,68.41
2014-07-14T06:05:36.295Z,68.73
2014-07-14T06:06:40.985Z,68.22
2014-07-14T06:07:45.673Z,68.88
2014-07-14T06:08:50.364Z,68.92
2014-07-14T06:09:55.350Z,68.33
2014-07-14T06:11:00.040Z,67.91
2014-07-14T06:12:04.713Z,68.91
2014-07-14T06:13:09.404Z,68.6
2014-07-14T06:14:14.092Z,69.11
2014-07-14T06:15:18.766Z,68.57
2014-07-14T06:16:23.456Z,67.65
2014-07-14T06:17:28.442Z,68.1
2014-07-14T06:18:33.116Z,68.41
2014-07-14T06:19:37.806Z,68.5
2014-07-14T06:20:42.496Z,68.14
2014-07-14T06:21:47.170Z,68.33
2014-07-14T06:22:52.156Z,68.77
2014-07-14T06:23:57.142Z,68.63
2014-07-14T06:25:02.129Z,68.73
2014-07-14T06:26:06.805Z,67.62
2014-07-14T06:27:11.493Z,67.21
2014-07-14T06:28:16.184Z,65.68
2014-07-14T06:29:20.857Z,67.17
2014-07-14T06:30:25.843Z,67.26
2014-07-14T06:31:30.534Z,66.32
2014-07-14T06:32:35.222Z,65.72
2014-07-14T06:33:39.896Z,66.09
2014-07-14T06:34:44.586Z,66.13
2014-07-14T06:35:49.572Z,66.75
2014-07-14T06:36:54.558Z,67.56
2014-07-14T06:37:59.546Z,67.43
2014-07-14T06:39:04.234Z,66.95
2014-07-14T06:40:09.533Z,67.45
2014-07-14T06:41:14.208Z,67.57
2014-07-14T06:42:18.897Z,67.19
2014-07-14T06:43:23.586Z,67.1
2014-07-14T06:44:27.589Z,66.89
2014-07-14T06:45:32.574Z,66.9
2014-07-14T06:46:37.265Z,66.41
2014-07-14T06:47:41.953Z,66.09
2014-07-14T06:48:46.924Z,63.53
2014-07-14T06:49:51.614Z,63.33
2014-07-14T06:50:56.600Z,63.12
2014-07-14T06:52:01.586Z,63.1
2014-07-14T06:53:06.279Z,64.02
2014-07-14T06:54:10.953Z,63.92
2014-07-14T06:55:15.938Z,64.04
2014-07-14T06:56:20.627Z,63.54
2014-07-14T06:57:25.317Z,63.86
2014-07-14T06:58:30.006Z,64.27
2014-07-14T06:59:34.680Z,64.94
2014-07-14T07:00:39.371Z,64.75
2014-07-14T07:01:44.059Z,65.37
2014-07-14T07:02:49.046Z,66.04
2014-07-14T07:03:54.016Z,65.33
2014-07-14T07:04:58.722Z,65.74
2014-07-14T07:06:03.396Z,65.37
2014-07-14T07:07:08.383Z,65.23
2014-07-14T07:08:13.369Z,65.21
2014-07-14T07:09:18.059Z,65.21
2014-07-14T07:10:23.342Z,65.64
2014-07-14T07:11:28.031Z,64.88
2014-07-14T07:12:32.721Z,65.25
2014-07-14T07:13:37.425Z,64.23
2014-07-14T07:14:42.130Z,64.61
2014-07-14T07:15:47.158Z,63.66
2014-07-14T07:16:52.190Z,63.04
2014-07-14T07:17:56.906Z,63.05
2014-07-14T07:19:01.640Z,63.23
2014-07-14T07:20:06.375Z,63.01
2014-07-14T07:21:11.079Z,63.55
2014-07-14T07:22:15.785Z,63.03
2014-07-14T07:23:20.489Z,63.9
2014-07-14T07:24:25.180Z,63.7
2014-07-14T07:25:29.876Z,62.16
2014-07-14T07:26:34.181Z,61.81
2014-07-14T07:27:38.875Z,61.03
2014-07-14T07:28:43.571Z,61.06
2014-07-14T07:29:48.265Z,60.75
2014-07-14T07:30:53.238Z,59.97
2014-07-14T07:31:57.933Z,59.73
2014-07-14T07:33:02.922Z,59.55
2014-07-14T07:34:07.613Z,59.37
2014-07-14T07:35:12.287Z,59.84
2014-07-14T07:36:17.275Z,60.42
2014-07-14T07:37:22.262Z,60.54
2014-07-14T07:38:26.968Z,60.01
2014-07-14T07:39:31.955Z,59.22
2014-07-14T07:40:36.629Z,57.87
2014-07-14T07:41:41.320Z,58.13
2014-07-14T07:42:46.306Z,58.31
2014-07-14T07:43:51.308Z,58.39
2014-07-14T07:44:55.999Z,58.88
2014-07-14T07:46:00.687Z,59.69
2014-07-14T07:47:05.673Z,59.85
2014-07-14T07:48:10.363Z,60.28
2014-07-14T07:49:15.053Z,60.39
2014-07-14T07:50:19.743Z,60.03
2014-07-14T07:51:24.447Z,60.66
2014-07-14T07:52:29.138Z,61.15
2014-07-14T07:53:34.124Z,61.42
2014-07-14T07:54:38.798Z,61.26
2014-07-14T07:55:43.487Z,62.3
2014-07-14T07:56:48.474Z,63.17
2014-07-14T07:57:53.163Z,62.33
2014-07-14T07:58:57.853Z,62.05
2014-07-14T08:00:02.542Z,63.34
2014-07-14T08:01:06.543Z,63.99
2014-07-14T08:02:11.234Z,65.58
2014-07-14T08:03:15.908Z,64.93
2014-07-14T08:04:20.597Z,65.59
2014-07-14T08:05:25.287Z,65.28
2014-07-14T08:06:29.975Z,66.2
2014-07-14T08:07:34.668Z,65.92
2014-07-14T08:08:39.654Z,65.24
2014-07-14T08:09:44.639Z,64.46
2014-07-14T08:10:49.627Z,65.16
2014-07-14T08:11:54.316Z,64.28
2014-07-14T08:12:59.303Z,64.28
2014-07-14T08:14:03.992Z,65.51
2014-07-14T08:15:08.682Z,64.44
2014-07-14T08:16:13.668Z,64.46
2014-07-14T08:17:18.654Z,64.49
2014-07-14T08:18:23.344Z,64.92
2014-07-14T08:19:28.330Z,62.93
2014-07-14T08:20:33.332Z,62.22
2014-07-14T08:21:38.022Z,62.07
2014-07-14T08:22:42.710Z,61.96
2014-07-14T08:23:47.401Z,61.23
2014-07-14T08:24:52.090Z,61.04
2014-07-14T08:25:56.764Z,61.36
2014-07-14T08:27:01.455Z,60.78
2014-07-14T08:28:06.143Z,60.84
2014-07-14T08:29:10.834Z,60.48
2014-07-14T08:30:15.819Z,60.78
2014-07-14T08:31:20.806Z,60.05
2014-07-14T08:32:24.807Z,60.57
2014-07-14T08:33:29.795Z,59.89
2014-07-14T08:34:35.077Z,59.48
2014-07-14T08:35:39.751Z,59.86
2014-07-14T08:36:44.440Z,60.22
2014-07-14T08:37:49.130Z,59.33
2014-07-14T08:38:53.819Z,59.84
2014-07-14T08:39:58.510Z,59.88
2014-07-14T08:41:03.481Z,59.23
2014-07-14T08:42:08.466Z,59
2014-07-14T08:43:13.155Z,58.94
2014-07-14T08:44:17.845Z,58.75
2014-07-14T08:45:22.833Z,58.42
2014-07-14T08:46:27.523Z,57.68
2014-07-14T08:47:32.212Z,57.87
2014-07-14T08:48:36.903Z,57.09
2014-07-14T08:49:41.591Z,57.31
2014-07-14T08:50:46.594Z,57.33
2014-07-14T08:51:51.580Z,57.41
2014-07-14T08:52:56.255Z,57.39
2014-07-14T08:54:00.943Z,56.28
2014-07-14T08:55:05.649Z,55.35
2014-07-14T08:56:10.354Z,55.67
2014-07-14T08:57:15.043Z,55.17
2014-07-14T08:58:19.732Z,55.47
2014-07-14T08:59:24.719Z,56.44
2014-07-14T09:00:29.408Z,58.02
2014-07-14T09:01:34.395Z,56.36
2014-07-14T09:02:39.084Z,56.61
2014-07-14T09:03:44.055Z,56.05
2014-07-14T09:04:49.041Z,56.25
2014-07-14T09:05:53.731Z,56.24
2014-07-14T09:06:58.420Z,56.93
2014-07-14T09:08:03.110Z,56.76
2014-07-14T09:09:07.784Z,56.72
2014-07-14T09:10:12.473Z,57.48
2014-07-14T09:11:17.163Z,58.73
2014-07-14T09:12:21.855Z,59.85
2014-07-14T09:13:26.544Z,60.53
2014-07-14T09:14:31.233Z,60.52
2014-07-14T09:15:35.923Z,61.24
2014-07-14T09:16:40.596Z,61.72
2014-07-14T09:17:45.286Z,61.75
2014-07-14T09:18:49.975Z,60.54
2014-07-14T09:19:54.665Z,62.98
2014-07-14T09:20:59.651Z,62.89
2014-07-14T09:22:04.638Z,63.55
2014-07-14T09:23:09.328Z,64.1
2014-07-14T09:24:14.315Z,63.53
2014-07-14T09:25:19.004Z,61.27
2014-07-14T09:26:23.990Z,62.42
2014-07-14T09:27:28.679Z,62.13
2014-07-14T09:28:33.369Z,61.88
2014-07-14T09:29:38.355Z,62.21
2014-07-14T09:30:43.341Z,61.8
2014-07-14T09:31:48.031Z,61.52
2014-07-14T09:32:52.721Z,60.11
2014-07-14T09:33:57.411Z,60.39
2014-07-14T09:35:02.397Z,60.79
2014-07-14T09:36:07.087Z,59.15
2014-07-14T09:37:12.073Z,59.27
2014-07-14T09:38:16.762Z,58.59
2014-07-14T09:39:21.749Z,57.64
2014-07-14T09:40:26.735Z,57.08
2014-07-14T09:41:31.409Z,57.31
2014-07-14T09:42:36.099Z,58.36
2014-07-14T09:43:41.084Z,59.16
2014-07-14T09:44:45.774Z,60.83
2014-07-14T09:45:50.464Z,58.2
2014-07-14T09:46:55.153Z,58.08
2014-07-14T09:48:00.436Z,58.01
2014-07-14T09:49:05.126Z,57.87
2014-07-14T09:50:09.818Z,58.53
2014-07-14T09:51:14.507Z,58.74
2014-07-14T09:52:19.181Z,57.37
2014-07-14T09:53:24.277Z,58.31
2014-07-14T09:54:28.966Z,58.68
2014-07-14T09:55:33.953Z,59.24
2014-07-14T09:56:38.642Z,59.39
2014-07-14T09:57:43.332Z,60.1
2014-07-14T09:58:48.021Z,60.7
2014-07-14T09:59:52.711Z,60.34
2014-07-14T10:00:57.994Z,60.05
2014-07-14T10:02:02.683Z,59.89
2014-07-14T10:03:07.373Z,59.61
2014-07-14T10:04:12.062Z,59.79
2014-07-14T10:05:17.048Z,59.39
2014-07-14T10:06:22.034Z,57.03
2014-07-14T10:07:26.725Z,56.11
2014-07-14T10:08:31.414Z,56.94
2014-07-14T10:09:36.400Z,55.15
2014-07-14T10:10:41.387Z,55.47
2014-07-14T10:11:46.076Z,54.2
2014-07-14T10:12:50.766Z,54.14
2014-07-14T10:13:55.440Z,52.73
2014-07-14T10:15:00.129Z,52.19
2014-07-14T10:16:04.131Z,50.74
2014-07-14T10:17:09.118Z,51.45
2014-07-14T10:18:14.104Z,50.29
2014-07-14T10:19:19.090Z,50.09
2014-07-14T10:20:23.780Z,49.91
2014-07-14T10:21:28.469Z,50.7
2014-07-14T10:22:33.161Z,49.12
2014-07-14T10:23:38.146Z,49.44
2014-07-14T10:24:42.837Z,49.86
2014-07-14T10:25:47.526Z,50.92
2014-07-14T10:26:52.216Z,51.62
2014-07-14T10:27:57.202Z,53.02
2014-07-14T10:29:02.189Z,50.33
2014-07-14T10:30:07.175Z,49.69
2014-07-14T10:31:11.864Z,50.33
2014-07-14T10:32:16.851Z,50.6
2014-07-14T10:33:21.540Z,50.46
2014-07-14T10:34:26.230Z,50.57
2014-07-14T10:35:30.919Z,50.86
2014-07-14T10:36:35.609Z,51.23
2014-07-14T10:37:40.595Z,50.46
2014-07-14T10:38:45.582Z,51.93
2014-07-14T10:39:50.271Z,51.79
2014-07-14T10:40:54.961Z,50.87
2014-07-14T10:42:00.245Z,50.34
2014-07-14T10:43:04.934Z,51.5
2014-07-14T10:44:09.921Z,50.35
2014-07-14T10:45:14.906Z,51.15
2014-07-14T10:46:19.596Z,51.34
2014-07-14T10:47:24.285Z,51.77
2014-07-14T10:48:28.975Z,50.86
2014-07-14T10:49:33.680Z,50.73
2014-07-14T10:50:38.370Z,51.25
2014-07-14T10:51:43.356Z,50.68
2014-07-14T10:52:48.045Z,51.22
2014-07-14T10:53:53.032Z,52.65
2014-07-14T10:54:57.721Z,53.93
2014-07-14T10:56:02.411Z,55.4
2014-07-14T10:57:07.101Z,56.65
2014-07-14T10:58:11.790Z,57.82
2014-07-14T10:59:16.776Z,58.39
2014-07-14T11:00:21.468Z,58.08
2014-07-14T11:01:26.157Z,58.98
2014-07-14T11:02:30.832Z,59.83
2014-07-14T11:03:35.520Z,61.05
2014-07-14T11:04:40.210Z,62.32
2014-07-14T11:05:44.899Z,63.06
2014-07-14T11:06:49.589Z,63.35
2014-07-14T11:07:54.278Z,62.94
2014-07-14T11:08:58.968Z,61.51
2014-07-14T11:10:03.673Z,61.46
2014-07-14T11:11:08.659Z,62.28
2014-07-14T11:12:13.349Z,61.6
2014-07-14T11:13:18.069Z,61.78
2014-07-14T11:14:22.759Z,61.4
2014-07-14T11:15:27.745Z,60.05
2014-07-14T11:16:32.732Z,58.85
2014-07-14T11:17:37.422Z,58.24
2014-07-14T11:18:42.095Z,55.51
2014-07-14T11:19:46.785Z,55.82
2014-07-14T11:20:51.475Z,56.41
2014-07-14T11:21:56.460Z,55.34
2014-07-14T11:23:01.151Z,54.54
2014-07-14T11:24:05.840Z,53.78
2014-07-14T11:25:10.530Z,53.61
2014-07-14T11:26:15.516Z,53.93
2014-07-14T11:27:20.220Z,54.14
2014-07-14T11:28:24.552Z,55.04
2014-07-14T11:29:29.554Z,55.36
2014-07-14T11:30:34.243Z,55.16
2014-07-14T11:31:38.933Z,55.95
2014-07-14T11:32:43.622Z,56.34
2014-07-14T11:33:48.906Z,56.37
2014-07-14T11:34:53.597Z,55.83
2014-07-14T11:35:58.286Z,56.32
2014-07-14T11:37:02.976Z,56.62
2014-07-14T11:38:07.665Z,56.69
2014-07-14T11:39:12.355Z,57.64
2014-07-14T11:40:17.044Z,57.41
2014-07-14T11:41:21.734Z,56.83
2014-07-14T11:42:26.423Z,57.32
2014-07-14T11:43:31.113Z,56.63
2014-07-14T11:44:36.099Z,56.39
2014-07-14T11:45:40.789Z,57.27
2014-07-14T11:46:45.478Z,57.46
2014-07-14T11:47:50.465Z,57.22
2014-07-14T11:48:55.154Z,58.59
2014-07-14T11:49:59.844Z,59.09
2014-07-14T11:51:04.831Z,59.26
2014-07-14T11:52:09.519Z,59.23
2014-07-14T11:53:14.209Z,59.28
2014-07-14T11:54:18.898Z,59.9
2014-07-14T11:55:23.885Z,58.88
2014-07-14T11:56:28.574Z,57.52
2014-07-14T11:57:33.561Z,57.62
2014-07-14T11:58:38.250Z,57.96
2014-07-14T11:59:42.925Z,58.04
2014-07-14T12:00:47.614Z,58.15
2014-07-14T12:01:52.304Z,58.22
2014-07-14T12:02:57.290Z,58.09
2014-07-14T12:04:01.980Z,57.99
2014-07-14T12:05:06.668Z,58.63
2014-07-14T12:06:11.655Z,59.11
2014-07-14T12:07:15.657Z,60.28
2014-07-14T12:08:20.659Z,60.77
2014-07-14T12:09:25.647Z,61.53
2014-07-14T12:10:29.649Z,62.11
2014-07-14T12:11:34.339Z,63.23
2014-07-14T12:12:39.013Z,62.93
2014-07-14T12:13:43.999Z,63.29
2014-07-14T12:14:49.001Z,61.11
2014-07-14T12:15:53.690Z,62.65
2014-07-14T12:16:58.380Z,61.93
2014-07-14T12:18:03.069Z,60.33
2014-07-14T12:19:07.759Z,62.04
2014-07-14T12:20:12.745Z,61.21
2014-07-14T12:21:17.435Z,61.26
2014-07-14T12:22:22.125Z,61.86
2014-07-14T12:23:26.814Z,60.25
2014-07-14T12:24:31.503Z,60.83
2014-07-14T12:25:36.193Z,60.67
2014-07-14T12:26:40.883Z,59.75
2014-07-14T12:27:45.572Z,58.09
2014-07-14T12:28:50.261Z,56.69
2014-07-14T12:29:54.936Z,56.7
2014-07-14T12:30:59.640Z,57.35
2014-07-14T12:32:04.627Z,56.43
2014-07-14T12:33:09.316Z,54.87
2014-07-14T12:34:14.007Z,55.2
2014-07-14T12:35:18.992Z,54.15
2014-07-14T12:36:23.963Z,54.4
2014-07-14T12:37:28.653Z,55.62
2014-07-14T12:38:33.639Z,54.92
2014-07-14T12:39:38.329Z,55.02
2014-07-14T12:40:43.315Z,53.34
2014-07-14T12:41:48.005Z,52.44
2014-07-14T12:42:52.696Z,53.1
2014-07-14T12:43:57.385Z,52.52
2014-07-14T12:45:02.371Z,52.9
2014-07-14T12:46:07.046Z,53.21
2014-07-14T12:47:11.750Z,52.91
2014-07-14T12:48:16.441Z,52.43
2014-07-14T12:49:21.129Z,52.46
2014-07-14T12:50:26.414Z,52.96
2014-07-14T12:51:31.102Z,53.43
2014-07-14T12:52:36.089Z,52.76
2014-07-14T12:53:41.075Z,52.67
2014-07-14T12:54:46.078Z,52.77
2014-07-14T12:55:51.064Z,52.47
2014-07-14T12:56:55.754Z,53.56
2014-07-14T12:58:00.443Z,53.17
2014-07-14T12:59:05.133Z,51.54
2014-07-14T13:00:09.822Z,52.15
2014-07-14T13:01:14.512Z,51.01
2014-07-14T13:02:19.201Z,50.5
2014-07-14T13:03:24.173Z,50.44
2014-07-14T13:04:28.862Z,49.51
2014-07-14T13:05:33.551Z,50.48
2014-07-14T13:06:38.241Z,50.32
2014-07-14T13:07:42.930Z,49.62
2014-07-14T13:08:47.916Z,48.53
2014-07-14T13:09:52.606Z,49.18
2014-07-14T13:10:57.295Z,49.29
2014-07-14T13:12:01.985Z,50.05
2014-07-14T13:13:06.674Z,49.5
2014-07-14T13:14:11.661Z,49.97
2014-07-14T13:15:16.350Z,49.14
2014-07-14T13:16:21.040Z,48.28
2014-07-14T13:17:25.729Z,49.06
2014-07-14T13:18:30.419Z,49.09
2014-07-14T13:19:35.108Z,50.25
2014-07-14T13:20:39.798Z,51.5
2014-07-14T13:21:44.487Z,51.32
2014-07-14T13:22:49.178Z,51.49
2014-07-14T13:23:54.164Z,51.26
2014-07-14T13:24:59.150Z,51.07
2014-07-14T13:26:04.153Z,50.07
2014-07-14T13:27:08.841Z,50.42
2014-07-14T13:28:13.531Z,51.88
2014-07-14T13:29:18.223Z,51.17
2014-07-14T13:30:22.913Z,51.42
2014-07-14T13:31:27.601Z,52.02
2014-07-14T13:32:32.291Z,51.8
2014-07-14T13:33:36.980Z,51.92
2014-07-14T13:34:41.967Z,52.63
2014-07-14T13:35:45.969Z,52.26
2014-07-14T13:36:50.659Z,52.44
2014-07-14T13:37:55.348Z,52.82
2014-07-14T13:39:00.037Z,52.28
2014-07-14T13:40:05.023Z,52.68
2014-07-14T13:41:09.714Z,52.47
2014-07-14T13:42:14.699Z,52.58
2014-07-14T13:43:19.687Z,51.56
2014-07-14T13:44:24.672Z,51.54
2014-07-14T13:45:29.815Z,51.56
2014-07-14T13:46:34.738Z,51.61
2014-07-14T13:47:39.850Z,51.78
2014-07-14T13:48:44.962Z,51.92
2014-07-14T13:49:49.667Z,51.79
2014-07-14T13:50:54.356Z,51.68
2014-07-14T13:51:59.046Z,51.49
2014-07-14T13:53:03.735Z,51.38
2014-07-14T13:54:08.425Z,51.93
2014-07-14T13:55:13.145Z,52.03
2014-07-14T13:56:17.835Z,52.68
2014-07-14T13:57:22.525Z,53.33